Terminal Aerodrome Forecast
Issued by NWS

Home | Current Version | Previous Version | Text Only | Print | Product List | Glossary On
Versions: 1 2 3 4 5 6 7 8 9 10 11 12 13 14 15 16 17 18 19
000
FTUS41 KGYX 241731
TAFHIE
TAF
KHIE 241731Z 2418/2518 00000KT 4SM -SHRA BR OVC050
      TEMPO 2418/2420 1 1/2SM SHRA OVC012
     FM242000 00000KT 3SM -SHRA BR OVC012
     FM250000 18004KT 1 1/2SM BR OVC007 WS010/20025KT=

USA.gov is the U.S. government's official web portal to all federal, state and local government web resources and services.